Time;durP1;ratioP1;P1;durP2;ratioP2;P2;SDS_P1;SDS_P2;PMS_P1;PMS_P2;Temp;Humidity;BMP_temperature;BMP_pressure;BME280_temperature;BME280_humidity;BME280_pressure;Samples;Min_cycle;Max_cycle;Signal;HPM_P1;HPM_P2
2023/03/08 00:01:19;;;;;;;3.65;1.45;;;-2.50;99.90;;;;;;5066693;28;20044;-37
2023/03/08 00:03:45;;;;;;;4.28;0.65;;;-2.40;99.90;;;;;;5065919;28;20702;-37
2023/03/08 00:06:13;;;;;;;3.33;0.95;;;-2.60;99.90;;;;;;5049496;28;20044;-37
2023/03/08 00:08:39;;;;;;;3.58;0.90;;;-2.40;99.90;;;;;;5066898;28;20562;-38
2023/03/08 00:11:09;;;;;;;4.78;1.40;;;-2.40;99.90;;;;;;5042762;28;20216;-38
2023/03/08 00:13:35;;;;;;;4.93;1.20;;;-2.40;99.90;;;;;;5064531;28;20072;-38
2023/03/08 00:16:02;;;;;;;3.28;0.93;;;-2.20;99.90;;;;;;5064950;28;20076;-37
2023/03/08 00:18:28;;;;;;;4.32;1.52;;;-2.30;99.90;;;;;;5064343;28;20036;-38
2023/03/08 00:21:05;;;;;;;5.13;1.58;;;-2.20;99.90;;;;;;5064331;28;20037;-38
2023/03/08 00:23:31;;;;;;;6.00;1.35;;;-2.20;99.90;;;;;;5065341;28;20118;-38
2023/03/08 00:25:57;;;;;;;5.95;1.58;;;-2.20;99.90;;;;;;5065347;28;20044;-38
2023/03/08 00:28:23;;;;;;;3.85;1.60;;;-2.20;99.90;;;;;;5064752;28;20044;-38
2023/03/08 00:31:15;;;;;;;5.88;1.50;;;-2.40;99.90;;;;;;5064763;28;20590;-38
2023/03/08 00:33:41;;;;;;;6.00;1.70;;;-2.20;99.90;;;;;;5060839;28;20044;-38
2023/03/08 00:36:11;;;;;;;3.95;1.77;;;-2.20;99.90;;;;;;5064606;28;20564;-38
2023/03/08 00:38:37;;;;;;;5.82;1.45;;;-2.20;99.90;;;;;;5064281;28;20664;-35
2023/03/08 00:41:03;;;;;;;4.47;1.88;;;-2.20;99.90;;;;;;5047825;28;20049;-36
2023/03/08 00:43:29;;;;;;;5.57;1.63;;;-2.20;99.90;;;;;;5066237;28;20113;-37
2023/03/08 00:45:55;;;;;;;7.10;1.55;;;-2.20;99.90;;;;;;5066602;28;20128;-36
2023/03/08 00:48:21;;;;;;;5.68;2.45;;;-2.20;99.90;;;;;;5066292;28;20601;-41
2023/03/08 00:50:47;;;;;;;6.95;1.88;;;-2.30;99.90;;;;;;5065979;28;20978;-41
2023/03/08 00:53:13;;;;;;;5.97;1.88;;;-2.30;99.90;;;;;;5066524;28;20151;-40
2023/03/08 00:55:46;;;;;;;6.18;1.75;;;-2.30;99.90;;;;;;5065794;28;20128;-40
2023/03/08 00:58:11;;;;;;;4.57;1.75;;;-2.30;99.90;;;;;;5066233;28;20091;-41
2023/03/08 01:00:37;;;;;;;6.20;2.17;;;-2.30;99.90;;;;;;5066597;28;20554;-41
2023/03/08 01:03:03;;;;;;;5.45;1.90;;;-2.30;99.90;;;;;;5066433;28;20468;-40
2023/03/08 01:05:28;;;;;;;4.15;2.10;;;-2.30;99.90;;;;;;5065967;28;20046;-40
2023/03/08 01:07:54;;;;;;;4.05;2.10;;;-2.40;99.90;;;;;;5048004;28;20079;-41
2023/03/08 01:10:20;;;;;;;4.28;1.95;;;-2.30;99.90;;;;;;5066419;28;20053;-40
2023/03/08 01:12:46;;;;;;;6.15;2.13;;;-2.30;99.90;;;;;;5065783;28;20041;-40
2023/03/08 01:15:11;;;;;;;6.78;2.13;;;-2.40;99.90;;;;;;5066057;28;20120;-41
2023/03/08 01:17:37;;;;;;;5.63;2.00;;;-2.40;99.90;;;;;;5065820;28;20067;-40
2023/03/08 01:20:03;;;;;;;5.45;1.90;;;-2.40;99.90;;;;;;5065572;28;20075;-41
2023/03/08 01:22:29;;;;;;;7.22;2.58;;;-2.40;99.90;;;;;;5065650;28;20052;-40
2023/03/08 01:24:55;;;;;;;4.57;2.13;;;-2.40;99.90;;;;;;5065417;28;20051;-41
2023/03/08 01:27:20;;;;;;;4.97;2.30;;;-2.40;99.90;;;;;;5065476;28;20032;-41
2023/03/08 01:29:47;;;;;;;9.10;2.25;;;-1.60;99.90;;;;;;5065391;28;20607;-41
2023/03/08 01:32:12;;;;;;;7.03;2.35;;;-2.40;99.90;;;;;;5065611;28;20049;-40
2023/03/08 01:34:38;;;;;;;5.82;1.98;;;-2.30;99.90;;;;;;5065118;28;20417;-40
2023/03/08 01:37:04;;;;;;;5.25;2.53;;;-2.30;99.90;;;;;;5065811;28;20076;-40
2023/03/08 01:39:30;;;;;;;8.38;2.25;;;-2.30;99.90;;;;;;5065880;28;20036;-40
2023/03/08 01:41:56;;;;;;;5.07;2.33;;;-2.30;99.90;;;;;;5065247;28;20194;-40
2023/03/08 01:44:22;;;;;;;5.65;2.63;;;-2.30;99.90;;;;;;5065545;28;20403;-40
2023/03/08 01:46:48;;;;;;;5.25;2.53;;;-2.40;99.90;;;;;;5065061;28;20131;-40
2023/03/08 01:49:24;;;;;;;5.28;2.53;;;-2.40;99.90;;;;;;5065350;28;20044;-41
2023/03/08 01:51:55;;;;;;;5.93;2.40;;;-2.40;99.90;;;;;;5046720;28;20052;-40
2023/03/08 01:54:33;;;;;;;7.73;3.33;;;-2.40;99.90;;;;;;5065569;28;20831;-41
2023/03/08 01:57:07;;;;;;;8.07;3.05;;;-2.40;99.90;;;;;;5065050;28;20052;-40
2023/03/08 01:59:34;;;;;;;5.30;2.67;;;-2.40;99.90;;;;;;5065610;28;20071;-40
2023/03/08 02:02:01;;;;;;;8.25;2.50;;;-2.40;99.90;;;;;;5064988;28;20585;-40
2023/03/08 02:04:27;;;;;;;5.43;2.55;;;-2.60;99.90;;;;;;5065206;28;20060;-40
2023/03/08 02:06:53;;;;;;;5.78;2.58;;;-2.50;99.90;;;;;;5066705;28;20041;-40
2023/03/08 02:09:19;;;;;;;5.13;2.28;;;-2.50;99.90;;;;;;5069295;28;20036;-40
2023/03/08 02:11:47;;;;;;;9.48;3.33;;;-2.50;99.90;;;;;;5068843;28;20128;-40
2023/03/08 02:14:13;;;;;;;5.28;2.45;;;-2.60;99.90;;;;;;5069115;28;20540;-40
2023/03/08 02:16:38;;;;;;;6.82;2.70;;;-2.60;99.90;;;;;;5051410;28;20152;-40
2023/03/08 02:19:19;;;;;;;7.25;2.80;;;-2.60;99.90;;;;;;5068229;28;20051;-41
2023/03/08 02:21:45;;;;;;;8.65;3.67;;;-2.60;99.90;;;;;;5068016;28;20051;-41
2023/03/08 02:24:37;;;;;;;6.03;2.95;;;-2.60;99.90;;;;;;5068758;28;20044;-41
2023/03/08 02:27:08;;;;;;;7.38;2.70;;;-2.60;99.90;;;;;;5063687;28;20541;-41
2023/03/08 02:29:33;;;;;;;7.55;2.90;;;-2.60;99.90;;;;;;5068530;28;20127;-40
2023/03/08 02:31:59;;;;;;;8.15;2.75;;;-2.50;99.90;;;;;;5068519;28;20037;-40
2023/03/08 02:34:25;;;;;;;8.23;3.13;;;-2.60;99.90;;;;;;5068730;28;20052;-40
2023/03/08 02:36:51;;;;;;;9.23;3.40;;;-2.70;99.90;;;;;;5068756;28;20055;-40
2023/03/08 02:39:16;;;;;;;8.27;3.72;;;-2.70;99.90;;;;;;5069429;28;20490;-40
2023/03/08 02:41:42;;;;;;;11.75;4.22;;;-2.60;99.90;;;;;;5069080;28;20052;-40
2023/03/08 02:44:07;;;;;;;9.77;3.83;;;-2.60;99.90;;;;;;5068915;28;20047;-40
2023/03/08 02:46:33;;;;;;;9.15;4.47;;;-2.60;99.90;;;;;;5069161;28;20123;-41
2023/03/08 02:48:59;;;;;;;11.27;4.63;;;-2.70;99.90;;;;;;5068642;28;20072;-41
2023/03/08 02:51:25;;;;;;;9.88;4.95;;;-2.60;99.90;;;;;;5068534;28;20051;-41
2023/03/08 02:53:50;;;;;;;9.75;4.80;;;-2.70;99.90;;;;;;5068219;28;20036;-40
2023/03/08 02:56:16;;;;;;;11.73;5.22;;;-2.60;99.90;;;;;;5068288;28;20040;-41
2023/03/08 02:58:42;;;;;;;14.00;6.22;;;-2.60;99.90;;;;;;5068071;28;20047;-41
2023/03/08 03:01:12;;;;;;;14.20;5.88;;;-2.70;99.90;;;;;;5068668;28;20044;-40
2023/03/08 03:03:38;;;;;;;15.45;6.43;;;-2.70;99.90;;;;;;5068736;28;20131;-41
2023/03/08 03:06:11;;;;;;;18.77;6.97;;;-2.70;99.90;;;;;;5068273;28;20648;-40
2023/03/08 03:08:36;;;;;;;;;;;-2.80;99.90;;;;;;5069168;28;20958;-41
2023/03/08 03:11:20;;;;;;;16.27;7.15;;;-2.70;99.90;;;;;;5068517;28;19924;-40
2023/03/08 03:13:46;;;;;;;16.23;8.23;;;-2.70;99.90;;;;;;5068695;28;20390;-41
2023/03/08 03:16:15;;;;;;;19.75;9.40;;;-2.60;99.90;;;;;;5068208;28;20041;-41
2023/03/08 03:18:42;;;;;;;17.77;8.40;;;-2.40;99.90;;;;;;5067652;28;20090;-40
2023/03/08 03:21:11;;;;;;;25.05;8.77;;;-2.60;99.90;;;;;;5068192;28;20048;-40
2023/03/08 03:23:38;;;;;;;18.55;9.05;;;-2.70;99.90;;;;;;5068316;28;20488;-41
2023/03/08 03:26:06;;;;;;;19.77;9.38;;;-2.60;99.90;;;;;;5067794;28;20036;-41
2023/03/08 03:28:32;;;;;;;20.23;9.18;;;-2.60;99.90;;;;;;5067987;28;20048;-40
2023/03/08 03:30:58;;;;;;;19.20;9.70;;;-2.60;99.90;;;;;;5067054;28;20090;-40
2023/03/08 03:33:24;;;;;;;20.65;9.60;;;-2.60;99.90;;;;;;5067745;28;20143;-40
2023/03/08 03:35:49;;;;;;;18.08;9.73;;;-2.60;99.90;;;;;;5047626;28;20064;-41
2023/03/08 03:38:15;;;;;;;21.65;10.23;;;-2.60;99.90;;;;;;5047213;28;20045;-40
2023/03/08 03:40:41;;;;;;;17.40;9.77;;;-2.80;99.90;;;;;;5047815;28;20044;-40
2023/03/08 03:43:07;;;;;;;15.65;9.60;;;-2.80;99.90;;;;;;5047348;28;20124;-41
2023/03/08 03:45:32;;;;;;;21.98;9.77;;;-2.80;99.90;;;;;;5047876;28;20045;-40
2023/03/08 03:47:58;;;;;;;21.25;10.50;;;;;;;;;;5047283;28;20043;-40
2023/03/08 03:50:24;;;;;;;18.52;9.90;;;-3.00;99.90;;;;;;5047320;28;20064;-40
2023/03/08 03:52:50;;;;;;;20.95;10.35;;;;;;;;;;5047055;28;20412;-40
2023/03/08 03:55:16;;;;;;;19.50;9.55;;;;;;;;;;5047322;28;20462;-40
2023/03/08 03:57:42;;;;;;;22.42;10.73;;;;;;;;;;5047640;28;20045;-40
2023/03/08 04:00:09;;;;;;;19.42;9.43;;;-2.90;99.90;;;;;;5047416;28;20446;-40
2023/03/08 04:02:35;;;;;;;20.30;10.07;;;;;;;;;;5047798;28;20044;-40
2023/03/08 04:05:01;;;;;;;23.15;10.43;;;;;;;;;;5047455;28;20095;-40
2023/03/08 04:07:27;;;;;;;21.27;10.60;;;;;;;;;;5047330;28;20043;-41
2023/03/08 04:09:53;;;;;;;17.98;10.52;;;;;;;;;;5047316;28;20052;-40
2023/03/08 04:12:19;;;;;;;19.38;10.35;;;;;;;;;;5046916;28;20052;-40
2023/03/08 04:14:44;;;;;;;23.48;11.25;;;-3.00;99.90;;;;;;5047024;28;20055;-40
2023/03/08 04:17:10;;;;;;;20.58;10.07;;;-3.00;99.90;;;;;;5046553;28;20045;-40
2023/03/08 04:19:36;;;;;;;20.33;11.60;;;;;;;;;;5046615;28;20041;-40
2023/03/08 04:22:02;;;;;;;22.42;12.23;;;;;;;;;;5046423;28;20721;-40
2023/03/08 04:24:28;;;;;;;23.00;10.90;;;;;;;;;;5028702;28;20107;-40
2023/03/08 04:26:54;;;;;;;22.52;12.00;;;;;;;;;;5028458;28;20048;-40
2023/03/08 04:29:20;;;;;;;21.40;11.70;;;-2.80;99.90;;;;;;5046541;28;20045;-40
2023/03/08 04:31:46;;;;;;;21.55;12.85;;;-3.00;99.90;;;;;;5046728;28;20033;-40
2023/03/08 04:34:11;;;;;;;26.02;13.52;;;-2.90;99.90;;;;;;5052684;28;20064;-41
2023/03/08 04:36:37;;;;;;;22.10;12.98;;;-2.90;99.90;;;;;;5066500;28;20060;-36
2023/03/08 04:39:03;;;;;;;27.02;13.13;;;;;;;;;;5066030;28;20028;-36
2023/03/08 04:41:29;;;;;;;26.42;13.23;;;;;;;;;;5066387;28;20047;-36
2023/03/08 04:43:56;;;;;;;26.65;13.93;;;-3.00;99.90;;;;;;5066313;28;20162;-36
2023/03/08 04:46:24;;;;;;;21.88;12.98;;;-3.10;99.90;;;;;;5048311;28;20048;-36
2023/03/08 04:48:54;;;;;;;22.45;12.70;;;-2.50;99.90;;;;;;5066671;28;20119;-36
2023/03/08 04:51:22;;;;;;;22.17;13.35;;;-3.10;99.90;;;;;;5066715;28;20398;-36
2023/03/08 04:53:48;;;;;;;26.05;14.30;;;-3.20;99.90;;;;;;5066541;28;20122;-36
2023/03/08 04:56:15;;;;;;;25.30;13.90;;;-3.20;99.90;;;;;;5066225;28;20059;-36
2023/03/08 04:58:41;;;;;;;27.15;14.88;;;-3.20;99.90;;;;;;5065670;28;20044;-36
2023/03/08 05:01:17;;;;;;;22.73;13.93;;;-3.20;99.90;;;;;;5066069;28;20040;-36
2023/03/08 05:03:44;;;;;;;24.40;14.07;;;-3.10;99.90;;;;;;5066126;28;20087;-36
2023/03/08 05:06:12;;;;;;;27.55;14.77;;;-2.30;99.90;;;;;;5065792;28;20048;-36
2023/03/08 05:08:38;;;;;;;27.50;15.93;;;-3.10;99.90;;;;;;5065623;28;20561;-36
2023/03/08 05:11:04;;;;;;;29.70;17.48;;;-3.10;99.90;;;;;;5065798;28;20639;-36
2023/03/08 05:13:33;;;;;;;29.45;16.95;;;-3.10;99.90;;;;;;5065806;28;20041;-36
2023/03/08 05:15:59;;;;;;;27.10;16.67;;;-3.10;99.90;;;;;;5066019;28;20037;-36
2023/03/08 05:18:25;;;;;;;27.08;16.55;;;-3.00;99.90;;;;;;5065880;28;20040;-36
2023/03/08 05:21:01;;;;;;;31.17;17.52;;;-3.00;99.90;;;;;;5066086;28;20047;-36
2023/03/08 05:23:27;;;;;;;33.33;18.55;;;-3.00;99.90;;;;;;5065945;28;20044;-36
2023/03/08 05:26:04;;;;;;;36.38;19.30;;;-2.90;99.90;;;;;;5065858;28;20032;-36
2023/03/08 05:28:31;;;;;;;32.63;18.90;;;-2.90;99.90;;;;;;5064674;28;20094;-36
2023/03/08 05:31:09;;;;;;;34.10;17.67;;;-2.80;99.90;;;;;;5065604;28;20041;-36
2023/03/08 05:33:36;;;;;;;30.38;18.38;;;-3.00;99.90;;;;;;5064708;28;20047;-36
2023/03/08 05:36:02;;;;;;;42.67;20.75;;;-2.90;99.90;;;;;;5064962;28;20136;-36
2023/03/08 05:38:28;;;;;;;33.78;19.77;;;-2.90;99.90;;;;;;5065680;28;20052;-36
2023/03/08 05:40:54;;;;;;;29.98;19.30;;;-3.00;99.90;;;;;;5066454;28;20587;-36
2023/03/08 05:43:21;;;;;;;38.10;20.45;;;-3.20;99.90;;;;;;5069830;28;20127;-36
2023/03/08 05:45:58;;;;;;;35.70;19.83;;;-3.10;99.90;;;;;;5070251;28;20060;-36
2023/03/08 05:48:24;;;;;;;33.70;19.60;;;-3.10;99.90;;;;;;5069904;28;20083;-36
2023/03/08 05:50:50;;;;;;;35.38;20.15;;;-3.20;99.90;;;;;;5069991;28;20044;-36
2023/03/08 05:53:16;;;;;;;37.28;20.48;;;-3.20;99.90;;;;;;5069749;28;20467;-36
2023/03/08 05:55:42;;;;;;;32.25;19.38;;;-3.30;99.90;;;;;;5051817;28;20051;-36
2023/03/08 05:58:07;;;;;;;39.22;20.35;;;-3.30;99.90;;;;;;5070112;28;20389;-36
2023/03/08 06:00:33;;;;;;;34.75;19.58;;;-3.30;99.90;;;;;;5070172;28;20071;-36
2023/03/08 06:03:02;;;;;;;33.10;19.00;;;-3.40;99.90;;;;;;5070186;28;20098;-36
2023/03/08 06:05:29;;;;;;;36.53;21.17;;;-3.00;99.90;;;;;;5069749;28;20119;-36
2023/03/08 06:07:55;;;;;;;32.45;18.75;;;-3.50;99.90;;;;;;5069916;28;20045;-36
2023/03/08 06:10:20;;;;;;;32.10;18.95;;;-3.50;99.90;;;;;;5051782;28;20048;-37
2023/03/08 06:12:46;;;;;;;34.20;19.10;;;-3.60;99.90;;;;;;5069479;28;20043;-36
2023/03/08 06:15:12;;;;;;;32.65;18.63;;;-3.70;99.90;;;;;;5069851;28;20044;-37
2023/03/08 06:17:39;;;;;;;33.45;18.90;;;-3.50;99.90;;;;;;5068936;28;20092;-36
2023/03/08 06:20:05;;;;;;;34.20;18.50;;;-3.60;99.90;;;;;;5069194;28;20555;-37
2023/03/08 06:22:31;;;;;;;32.63;18.35;;;-3.60;99.90;;;;;;5069422;28;20113;-36
2023/03/08 06:24:57;;;;;;;32.35;18.52;;;-3.60;99.90;;;;;;5069720;28;20051;-36
2023/03/08 06:27:22;;;;;;;30.73;19.15;;;-3.50;99.90;;;;;;5069463;28;20037;-36
2023/03/08 06:29:49;;;;;;;31.23;19.45;;;-3.50;99.90;;;;;;5068992;28;20066;-36
2023/03/08 06:32:15;;;;;;;36.53;20.35;;;-3.50;99.90;;;;;;5069237;28;20037;-36
2023/03/08 06:34:41;;;;;;;36.17;20.63;;;-3.40;99.90;;;;;;5050450;28;20449;-36
2023/03/08 06:37:07;;;;;;;36.22;21.20;;;-3.30;99.90;;;;;;5069050;28;20049;-36
2023/03/08 06:39:33;;;;;;;36.40;21.13;;;-3.30;99.90;;;;;;5068801;28;20040;-37
2023/03/08 06:42:01;;;;;;;31.30;19.90;;;-3.30;99.90;;;;;;5068535;28;20051;-36
2023/03/08 06:44:28;;;;;;;36.88;20.45;;;-3.20;99.90;;;;;;5068747;28;20052;-36
2023/03/08 06:46:53;;;;;;;40.30;22.33;;;-3.20;99.90;;;;;;5050840;28;20102;-36
2023/03/08 06:49:20;;;;;;;36.03;21.60;;;-3.10;99.90;;;;;;5034295;28;20048;-37
2023/03/08 06:51:45;;;;;;;39.05;22.17;;;-3.00;99.90;;;;;;5069086;28;20041;-37
2023/03/08 06:54:16;;;;;;;45.70;23.55;;;-2.90;99.90;;;;;;5067827;28;20040;-36
2023/03/08 06:56:45;;;;;;;36.88;22.77;;;-2.90;99.90;;;;;;5069073;28;20040;-36
2023/03/08 06:59:12;;;;;;;39.67;22.90;;;-2.70;99.90;;;;;;5069401;28;20409;-36
2023/03/08 07:01:38;;;;;;;43.63;25.20;;;-2.20;99.90;;;;;;5068847;28;20119;-36
2023/03/08 07:04:03;;;;;;;43.35;25.15;;;-2.40;99.90;;;;;;5069013;28;20593;-36
2023/03/08 07:06:29;;;;;;;49.28;26.52;;;-2.20;99.90;;;;;;5069175;28;20135;-36
2023/03/08 07:08:55;;;;;;;42.80;25.92;;;-2.10;99.90;;;;;;5069360;28;20044;-37
2023/03/08 07:11:21;;;;;;;44.45;25.92;;;-1.90;99.90;;;;;;5069192;28;20733;-37
2023/03/08 07:13:47;;;;;;;43.78;26.83;;;-1.70;99.90;;;;;;5068190;28;20363;-37
2023/03/08 07:16:13;;;;;;;47.08;27.42;;;-1.40;99.90;;;;;;5068675;28;20049;-37
2023/03/08 07:18:40;;;;;;;45.10;27.52;;;-1.20;99.90;;;;;;5067950;28;20040;-37
2023/03/08 07:21:06;;;;;;;44.65;29.08;;;-1.10;99.90;;;;;;5068229;28;20738;-37
2023/03/08 07:23:32;;;;;;;42.13;26.70;;;-1.10;99.90;;;;;;5068087;28;20048;-37
2023/03/08 07:25:57;;;;;;;43.92;27.67;;;-0.70;99.90;;;;;;5067986;28;20041;-37
2023/03/08 07:28:23;;;;;;;49.85;28.30;;;-0.60;99.90;;;;;;5049962;28;20044;-37
2023/03/08 07:30:51;;;;;;;41.65;26.67;;;-0.40;99.90;;;;;;5067835;28;20075;-37
2023/03/08 07:33:18;;;;;;;43.72;24.83;;;-0.30;99.90;;;;;;5067764;28;20083;-37
2023/03/08 07:35:44;;;;;;;41.40;26.17;;;-0.30;99.90;;;;;;5049776;28;20056;-37
2023/03/08 07:38:11;;;;;;;41.22;26.35;;;-0.20;99.90;;;;;;5067847;28;20049;-37
2023/03/08 07:40:37;;;;;;;40.95;25.67;;;-0.20;99.90;;;;;;5067704;28;20044;-37
2023/03/08 07:43:02;;;;;;;40.78;25.02;;;-0.20;99.90;;;;;;5067973;28;20048;-37
2023/03/08 07:45:28;;;;;;;35.00;23.15;;;0.50;99.90;;;;;;5067914;28;20124;-37
2023/03/08 07:47:54;;;;;;;31.42;22.13;;;0.00;99.90;;;;;;5067261;28;20055;-37
2023/03/08 07:50:21;;;;;;;34.28;23.75;;;0.00;99.90;;;;;;5067157;28;20041;-37
2023/03/08 07:52:47;;;;;;;42.88;24.23;;;-0.10;99.90;;;;;;5067833;28;20122;-37
2023/03/08 07:55:13;;;;;;;38.08;22.98;;;0.00;99.90;;;;;;5068178;28;20039;-37
2023/03/08 07:57:39;;;;;;;35.25;23.58;;;0.10;99.90;;;;;;5067157;28;20040;-37
2023/03/08 08:00:06;;;;;;;29.23;21.45;;;0.10;99.90;;;;;;5049465;28;20079;-37
2023/03/08 08:02:33;;;;;;;29.23;19.73;;;0.20;99.90;;;;;;5048983;28;20135;-37
2023/03/08 08:04:59;;;;;;;29.55;19.80;;;0.20;99.90;;;;;;5066701;28;20083;-38
2023/03/08 08:07:25;;;;;;;27.02;18.20;;;0.30;99.90;;;;;;5067132;28;20122;-37
2023/03/08 08:09:51;;;;;;;24.70;18.25;;;0.40;99.90;;;;;;5048777;28;20048;-37
2023/03/08 08:12:16;;;;;;;24.88;17.52;;;0.50;99.90;;;;;;5067286;28;20094;-38
2023/03/08 08:14:42;;;;;;;24.67;18.15;;;1.30;99.90;;;;;;5066813;28;20072;-37
2023/03/08 08:17:08;;;;;;;27.45;16.45;;;0.50;99.90;;;;;;5066903;28;20054;-38
2023/03/08 08:19:34;;;;;;;26.80;16.38;;;0.60;99.90;;;;;;5066420;28;20049;-38
2023/03/08 08:22:00;;;;;;;23.65;15.98;;;0.70;99.90;;;;;;5066292;28;20786;-38
2023/03/08 08:24:26;;;;;;;23.90;16.67;;;0.90;99.90;;;;;;5066213;28;20044;-37
2023/03/08 08:26:52;;;;;;;17.63;13.98;;;0.90;99.90;;;;;;5066132;28;20044;-38
2023/03/08 08:29:18;;;;;;;22.02;15.05;;;1.00;99.90;;;;;;5048148;28;20529;-38
2023/03/08 08:31:43;;;;;;;18.67;13.43;;;1.10;99.90;;;;;;5065409;28;20137;-38
2023/03/08 08:34:09;;;;;;;21.02;14.30;;;1.20;99.90;;;;;;5065136;28;20051;-38
2023/03/08 08:36:35;;;;;;;18.38;15.10;;;1.30;99.90;;;;;;5066044;28;20049;-38
2023/03/08 08:39:01;;;;;;;19.60;13.65;;;1.80;99.90;;;;;;5066495;28;20044;-36
2023/03/08 08:41:28;;;;;;;19.75;13.95;;;1.50;99.90;;;;;;5066619;28;20361;-37
2023/03/08 08:43:57;;;;;;;17.40;13.80;;;1.50;99.90;;;;;;5066125;28;20466;-37
2023/03/08 08:46:24;;;;;;;19.00;14.55;;;1.70;99.90;;;;;;5066604;28;20041;-37
2023/03/08 08:48:49;;;;;;;17.23;12.75;;;1.80;99.90;;;;;;5066395;28;20036;-37
2023/03/08 08:51:15;;;;;;;25.50;17.58;;;1.80;99.90;;;;;;5066058;28;20067;-37
2023/03/08 08:53:42;;;;;;;20.13;12.60;;;2.10;99.90;;;;;;5066424;28;20045;-37
2023/03/08 08:56:20;;;;;;;17.63;12.98;;;2.30;99.90;;;;;;5066368;28;20055;-37
2023/03/08 08:58:47;;;;;;;17.67;11.30;;;2.00;99.90;;;;;;5048416;28;20057;-37
2023/03/08 09:01:32;;;;;;;18.02;12.68;;;2.00;99.90;;;;;;5066512;28;20075;-37
2023/03/08 09:03:58;;;;;;;18.95;13.68;;;2.20;99.90;;;;;;5048251;28;20085;-37
2023/03/08 09:06:25;;;;;;;17.85;12.60;;;2.30;99.90;;;;;;5066203;28;20482;-37
2023/03/08 09:08:54;;;;;;;17.02;14.25;;;2.40;99.90;;;;;;5066382;28;20040;-38
2023/03/08 09:11:20;;;;;;;15.60;11.73;;;2.50;99.90;;;;;;5066880;28;20048;-37
2023/03/08 09:13:46;;;;;;;16.77;12.23;;;2.50;99.90;;;;;;5066839;28;20056;-37
2023/03/08 09:16:29;;;;;;;14.13;11.43;;;2.70;99.90;;;;;;5065705;28;20445;-37
2023/03/08 09:18:57;;;;;;;14.40;11.48;;;2.70;99.90;;;;;;5066006;28;20742;-37
2023/03/08 09:21:24;;;;;;;20.33;12.00;;;3.10;99.90;;;;;;5066390;28;20048;-38
2023/03/08 09:24:00;;;;;;;16.23;11.93;;;3.00;99.90;;;;;;5065734;28;20127;-37
2023/03/08 09:26:27;;;;;;;15.75;12.10;;;2.70;99.90;;;;;;5066606;28;20115;-37
2023/03/08 09:28:53;;;;;;;19.77;14.15;;;2.90;99.90;;;;;;5066035;28;20043;-37
2023/03/08 09:31:18;;;;;;;20.42;15.55;;;2.80;99.90;;;;;;5066050;28;20045;-38
2023/03/08 09:33:48;;;;;;;19.50;14.23;;;3.00;99.90;;;;;;5047920;28;20049;-37
2023/03/08 09:36:14;;;;;;;18.00;13.23;;;3.10;99.90;;;;;;5066277;28;20359;-38
2023/03/08 09:38:40;;;;;;;16.38;13.38;;;3.50;99.90;;;;;;5043594;28;20055;-37
2023/03/08 09:41:08;;;;;;;15.60;12.68;;;3.10;99.90;;;;;;5065918;28;20036;-37
2023/03/08 09:44:00;;;;;;;18.02;13.70;;;3.30;99.90;;;;;;5066132;28;20756;-38
2023/03/08 09:46:51;;;;;;;19.55;12.80;;;3.30;99.90;;;;;;5066057;28;20457;-38
2023/03/08 09:49:37;;;;;;;18.77;14.07;;;3.40;99.90;;;;;;5048091;28;20053;-38
2023/03/08 09:52:21;;;;;;;20.23;14.05;;;4.00;99.90;;;;;;5065345;28;20475;-38
2023/03/08 09:54:49;;;;;;;26.45;17.00;;;3.40;99.90;;;;;;5065484;28;20052;-38
2023/03/08 09:57:23;;;;;;;25.25;16.15;;;3.30;99.90;;;;;;5066053;28;20045;-38
2023/03/08 09:59:58;;;;;;;21.40;14.70;;;4.60;99.90;;;;;;5065439;28;20044;-37
2023/03/08 10:02:54;;;;;;;22.25;15.25;;;3.40;99.90;;;;;;5066203;28;20052;-37
2023/03/08 10:05:32;;;;;;;21.10;14.43;;;3.30;99.90;;;;;;5066463;28;20132;-37
2023/03/08 10:08:25;;;;;;;24.45;14.43;;;3.30;99.90;;;;;;5066224;28;20045;-38
2023/03/08 10:11:03;;;;;;;22.27;14.20;;;3.30;99.90;;;;;;5063086;28;20265;-38
2023/03/08 10:13:39;;;;;;;21.80;13.85;;;3.50;99.90;;;;;;5065862;28;20040;-37
2023/03/08 10:16:25;;;;;;;23.98;14.98;;;3.60;99.90;;;;;;5065467;28;20047;-37
2023/03/08 10:19:12;;;;;;;21.63;14.10;;;3.60;99.90;;;;;;5065508;28;20047;-38
2023/03/08 10:21:40;;;;;;;23.45;14.63;;;4.20;99.90;;;;;;5046978;28;20044;-39
2023/03/08 10:24:06;;;;;;;23.92;14.40;;;3.90;99.90;;;;;;5045545;28;20142;-39
2023/03/08 10:26:32;;;;;;;23.38;13.73;;;3.90;99.90;;;;;;5080181;28;20147;-39
2023/03/08 10:28:58;;;;;;;20.35;14.48;;;3.90;99.90;;;;;;5086515;28;20039;-40
2023/03/08 10:31:27;;;;;;;20.95;13.55;;;3.70;99.90;;;;;;5087275;28;20067;-39
2023/03/08 10:34:00;;;;;;;19.55;12.68;;;3.90;99.90;;;;;;5087815;28;20040;-37
2023/03/08 10:36:26;;;;;;;18.17;11.88;;;3.80;99.90;;;;;;5067907;28;20119;-38
2023/03/08 10:39:02;;;;;;;18.83;11.63;;;4.50;99.90;;;;;;5067158;28;20434;-40
2023/03/08 10:41:31;;;;;;;17.30;12.15;;;3.80;99.90;;;;;;5068018;28;20040;-39
2023/03/08 10:43:57;;;;;;;19.60;12.43;;;3.80;99.90;;;;;;5066659;28;20051;-40
2023/03/08 10:46:27;;;;;;;21.23;13.68;;;4.20;99.90;;;;;;5066363;28;20040;-39
2023/03/08 10:48:53;;;;;;;19.00;13.15;;;;;;;;;;5048428;28;20102;-38
2023/03/08 10:51:25;;;;;;;15.52;11.45;;;4.10;99.90;;;;;;5014813;28;21935;-37
2023/03/08 10:53:56;;;;;;;16.02;11.80;;;4.30;99.90;;;;;;5014818;28;20070;-40
2023/03/08 10:56:37;;;;;;;20.40;12.85;;;4.60;99.90;;;;;;5066447;28;20048;-39
2023/03/08 10:59:04;;;;;;;17.55;11.48;;;4.40;99.90;;;;;;5067212;28;20036;-39
2023/03/08 11:01:46;;;;;;;16.17;11.73;;;4.80;99.90;;;;;;5066577;28;20723;-39
2023/03/08 11:04:13;;;;;;;20.15;11.85;;;4.50;99.90;;;;;;5066849;28;20032;-54
2023/03/08 11:06:39;;;;;;;17.90;11.90;;;5.50;99.90;;;;;;5066871;28;20044;-38
2023/03/08 11:09:21;;;;;;;15.98;11.60;;;3.70;99.90;;;;;;5066735;28;20043;-37
2023/03/08 11:11:47;;;;;;;18.40;12.00;;;4.50;99.90;;;;;;5066787;28;20406;-37
2023/03/08 11:14:14;;;;;;;17.58;11.52;;;3.70;99.90;;;;;;5048281;28;20051;-37
2023/03/08 11:17:03;;;;;;;22.02;12.57;;;3.20;99.90;;;;;;5066884;28;20037;-60
2023/03/08 11:20:14;;;;;;;17.13;11.82;;;3.80;99.90;;;;;;5058901;28;20068;-40
2023/03/08 11:22:59;;;;;;;12.80;9.40;;;4.00;99.90;;;;;;5043502;28;20056;-38
2023/03/08 11:25:59;;;;;;;14.77;10.05;;;4.00;99.90;;;;;;5066940;28;20052;-38
2023/03/08 11:28:46;;;;;;;11.07;7.82;;;4.10;99.90;;;;;;5066976;28;20079;-38
2023/03/08 11:31:33;;;;;;;12.48;7.97;;;4.20;99.90;;;;;;5067410;28;20076;-38
2023/03/08 11:34:31;;;;;;;10.20;7.95;;;4.30;99.90;;;;;;5068877;28;20089;-39
2023/03/08 11:36:59;;;;;;;16.65;9.98;;;4.30;99.90;;;;;;5040584;28;20071;-38
2023/03/08 11:39:31;;;;;;;14.07;9.90;;;4.40;99.90;;;;;;5087911;28;20044;-38
2023/03/08 11:42:17;;;;;;;15.73;9.30;;;4.50;99.90;;;;;;5070088;28;20055;-38
2023/03/08 11:45:11;;;;;;;18.92;11.40;;;4.60;99.90;;;;;;5088337;28;20036;-38
2023/03/08 11:48:01;;;;;;;14.82;9.77;;;4.70;99.90;;;;;;5088231;28;20052;-38
2023/03/08 11:50:34;;;;;;;15.48;9.25;;;4.90;99.90;;;;;;5087341;28;20517;-38
2023/03/08 11:53:14;;;;;;;14.85;10.00;;;4.70;99.90;;;;;;5087847;28;20044;-38
2023/03/08 11:55:52;;;;;;;13.48;9.02;;;5.00;99.90;;;;;;5087386;28;20463;-38
2023/03/08 11:58:39;;;;;;;12.02;7.63;;;5.10;99.90;;;;;;5087186;28;20452;-38
2023/03/08 12:01:15;;;;;;;13.23;8.18;;;5.10;99.90;;;;;;5086717;28;20826;-38
2023/03/08 12:03:45;;;;;;;14.70;8.60;;;6.20;99.90;;;;;;5087298;28;20036;-38
2023/03/08 12:06:22;;;;;;;12.05;7.95;;;5.00;99.90;;;;;;5087395;28;20096;-38
2023/03/08 12:08:55;;;;;;;11.57;6.85;;;5.40;99.90;;;;;;5087486;28;20154;-38
2023/03/08 12:11:28;;;;;;;;;;;4.90;99.90;;;;;;5087036;28;20100;-38
2023/03/08 12:14:12;;;;;;;11.23;7.50;;;5.10;99.90;;;;;;5087099;28;20723;-38
2023/03/08 12:17:08;;;;;;;12.32;8.55;;;5.10;99.90;;;;;;5087191;28;20402;-38
2023/03/08 12:19:36;;;;;;;10.57;6.60;;;5.20;99.90;;;;;;5087161;28;20089;-38
2023/03/08 12:22:24;;;;;;;8.80;6.15;;;5.10;99.90;;;;;;5086930;28;20500;-38
2023/03/08 12:25:14;;;;;;;9.18;6.40;;;5.20;99.90;;;;;;5085895;28;20850;-38
2023/03/08 12:27:58;;;;;;;11.73;6.65;;;5.10;99.90;;;;;;5087277;28;20065;-38
2023/03/08 12:30:47;;;;;;;9.80;6.88;;;5.40;99.90;;;;;;5087127;28;20474;-37
2023/03/08 12:33:14;;;;;;;9.88;5.97;;;5.20;99.90;;;;;;5087038;28;20040;-37
2023/03/08 12:36:05;;;;;;;9.35;5.85;;;5.30;99.90;;;;;;5086749;28;20092;-38
2023/03/08 12:38:35;;;;;;;8.68;5.72;;;5.40;99.90;;;;;;5086336;28;20126;-38
2023/03/08 12:41:03;;;;;;;7.60;4.75;;;6.80;99.90;;;;;;5087454;28;20743;-38
2023/03/08 12:43:32;;;;;;;8.23;4.65;;;5.30;99.90;;;;;;5086842;28;20047;-38
2023/03/08 12:45:58;;;;;;;7.20;5.00;;;5.20;99.90;;;;;;5086751;28;20043;-38
2023/03/08 12:48:36;;;;;;;5.53;3.40;;;5.30;99.90;;;;;;5086876;28;20039;-38
2023/03/08 12:51:22;;;;;;;6.45;4.13;;;6.20;99.90;;;;;;5086040;28;20390;-38
2023/03/08 12:53:51;;;;;;;5.15;2.88;;;5.30;99.90;;;;;;5087463;28;20379;-38
2023/03/08 12:56:33;;;;;;;6.05;1.80;;;5.30;99.90;;;;;;5087415;28;20044;-38